Time;durP1;ratioP1;P1;durP2;ratioP2;P2;SDS_P1;SDS_P2;PMS_P1;PMS_P2;Temp;Humidity;BMP_temperature;BMP_pressure;BME280_temperature;BME280_humidity;BME280_pressure;Samples;Min_cycle;Max_cycle;Signal;HPM_P1;HPM_P2
2023/01/04 00:01:25;;;;;;;67.73;38.23;;;;;;;5.91;89.94;100388.25;5037487;28;20196;-65
2023/01/04 00:03:53;;;;;;;66.67;36.87;;;;;;;5.88;90.12;100383.25;5050734;28;20220;-65
2023/01/04 00:06:20;;;;;;;67.93;38.30;;;;;;;5.84;89.62;100392.44;5047514;28;20193;-66
2023/01/04 00:08:47;;;;;;;70.70;36.57;;;;;;;5.77;90.38;100392.97;5052165;28;20254;-66
2023/01/04 00:11:17;;;;;;;62.73;35.50;;;;;;;5.78;91.39;100394.66;5051668;28;20262;-66
2023/01/04 00:13:44;;;;;;;63.33;34.83;;;;;;;5.73;91.07;100394.22;5037327;28;20205;-66
2023/01/04 00:16:13;;;;;;;60.87;32.97;;;;;;;5.66;90.70;100393.16;5050719;28;20749;-66
2023/01/04 00:18:40;;;;;;;58.90;34.30;;;;;;;5.62;90.45;100389.16;5050404;28;20250;-66
2023/01/04 00:21:10;;;;;;;62.20;34.33;;;;;;;5.63;91.04;100400.50;5050110;28;20192;-67
2023/01/04 00:23:37;;;;;;;60.00;33.53;;;;;;;5.63;91.57;100396.06;5055642;28;20230;-66
2023/01/04 00:26:07;;;;;;;56.20;33.63;;;;;;;5.64;91.68;100392.44;5055478;28;20193;-66
2023/01/04 00:28:34;;;;;;;61.03;33.03;;;;;;;5.63;91.84;100401.34;5055972;28;20192;-66
2023/01/04 00:31:03;;;;;;;64.13;34.13;;;;;;;5.63;91.52;100406.59;5052106;28;20193;-66
2023/01/04 00:33:29;;;;;;;51.50;32.67;;;;;;;5.50;91.90;100400.81;5055826;28;20247;-66
2023/01/04 00:35:56;;;;;;;59.57;32.37;;;;;;;5.48;92.18;100408.00;5055483;28;20200;-66
2023/01/04 00:38:24;;;;;;;67.80;32.03;;;;;;;5.50;92.03;100411.34;5055502;28;20254;-65
2023/01/04 00:40:51;;;;;;;53.43;32.40;;;;;;;5.46;92.01;100409.13;5038837;28;20263;-65
2023/01/04 00:43:17;;;;;;;59.37;31.07;;;;;;;5.41;91.90;100400.84;5035532;28;20256;-65
2023/01/04 00:45:44;;;;;;;55.93;30.90;;;;;;;5.35;91.79;100404.00;5035364;28;20310;-65
2023/01/04 00:48:11;;;;;;;52.87;32.53;;;;;;;5.29;91.92;100410.69;5035624;28;20200;-68
2023/01/04 00:50:37;;;;;;;62.20;32.43;;;;;;;5.20;92.20;100405.44;5045542;28;20279;-66
2023/01/04 00:53:04;;;;;;;54.10;32.30;;;;;;;5.20;92.31;100408.06;5035622;28;20197;-66
2023/01/04 00:55:32;;;;;;;61.27;33.70;;;;;;;5.18;93.12;100397.66;5047283;28;20270;-66
2023/01/04 00:57:59;;;;;;;60.23;33.73;;;;;;;5.23;92.29;100413.88;5055074;28;20651;-66
2023/01/04 01:00:25;;;;;;;61.80;33.00;;;;;;;5.20;91.71;100414.16;5042172;28;20684;-66
2023/01/04 01:02:52;;;;;;;55.10;32.23;;;;;;;5.16;90.75;100418.03;5035127;28;20557;-65
2023/01/04 01:05:19;;;;;;;54.40;32.47;;;;;;;5.11;91.47;100414.19;5035464;28;20290;-65
2023/01/04 01:07:45;;;;;;;60.83;33.50;;;;;;;5.06;91.27;100416.38;5035284;28;20193;-65
2023/01/04 01:10:12;;;;;;;57.00;33.13;;;;;;;5.01;91.88;100424.69;5043124;28;20192;-66
2023/01/04 01:12:40;;;;;;;65.10;34.40;;;;;;;4.95;92.28;100425.22;5054766;28;20219;-65
2023/01/04 01:15:08;;;;;;;59.20;33.37;;;;;;;4.95;91.95;100421.78;5054847;28;20227;-65
2023/01/04 01:17:35;;;;;;;60.40;32.73;;;;;;;4.86;91.74;100414.72;5054997;28;20188;-65
2023/01/04 01:20:04;;;;;;;51.83;30.67;;;;;;;4.92;91.81;100419.41;5046646;28;20197;-65
2023/01/04 01:22:31;;;;;;;56.63;31.67;;;;;;;4.92;92.03;100417.63;5034801;28;20759;-66
2023/01/04 01:24:58;;;;;;;62.33;31.97;;;;;;;4.94;92.60;100412.19;5034936;28;20596;-66
2023/01/04 01:27:24;;;;;;;60.20;31.90;;;;;;;4.90;92.82;100411.66;5046464;28;20250;-67
2023/01/04 01:29:52;;;;;;;61.97;33.20;;;;;;;4.96;92.74;100411.13;5048561;28;20186;-66
2023/01/04 01:32:19;;;;;;;59.80;33.77;;;;;;;5.01;92.76;100408.91;5034411;28;20652;-67
2023/01/04 01:34:46;;;;;;;69.47;37.60;;;;;;;5.06;92.96;100411.94;5034674;28;20205;-66
2023/01/04 01:37:12;;;;;;;56.47;33.37;;;;;;;5.02;92.59;100413.19;5034737;28;20247;-65
2023/01/04 01:39:39;;;;;;;58.70;35.53;;;;;;;4.85;93.17;100416.50;5052454;28;20193;-65
2023/01/04 01:42:06;;;;;;;63.57;35.73;;;;;;;4.82;93.25;100408.06;5054551;28;20193;-65
2023/01/04 01:45:00;;;;;;;67.87;36.57;;;;;;;4.88;93.63;100408.34;5054218;28;20255;-65
2023/01/04 01:47:35;;;;;;;71.73;36.87;;;;;;;4.86;93.61;100409.47;5053792;28;20192;-65
2023/01/04 01:50:03;;;;;;;64.90;38.37;;;;;;;4.83;93.83;100407.91;5034283;28;20656;-65
2023/01/04 01:52:35;;;;;;;66.73;37.97;;;;;;;4.93;93.92;100411.38;5034143;28;20684;-65
2023/01/04 01:55:07;;;;;;;72.13;37.20;;;;;;;4.94;93.84;100406.94;5035076;28;20189;-65
2023/01/04 01:57:38;;;;;;;72.93;37.10;;;;;;;4.97;93.59;100407.50;5034185;28;20247;-68
2023/01/04 02:00:11;;;;;;;63.03;37.10;;;;;;;4.99;94.04;100400.28;5054039;28;20690;-67
2023/01/04 02:02:42;;;;;;;67.83;38.50;;;;;;;5.03;94.63;100404.31;5054384;28;20200;-66
2023/01/04 02:05:10;;;;;;;65.67;38.63;;;;;;;5.04;94.21;100398.09;5053543;28;20695;-66
2023/01/04 02:07:38;;;;;;;66.20;36.87;;;;;;;4.96;93.05;100403.22;5053546;28;20192;-66
2023/01/04 02:10:06;;;;;;;67.13;36.03;;;;;;;5.00;93.23;100398.50;5033752;28;20239;-65
2023/01/04 02:12:33;;;;;;;63.33;36.30;;;;;;;4.88;93.63;100396.97;5033755;28;20201;-66
2023/01/04 02:14:59;;;;;;;62.77;36.00;;;;;;;4.89;93.88;100402.09;5034339;28;20255;-65
2023/01/04 02:17:36;;;;;;;61.57;34.80;;;;;;;4.92;94.33;100399.22;5045604;28;20255;-65
2023/01/04 02:20:31;;;;;;;59.73;35.10;;;;;;;4.96;94.52;100395.31;5053922;28;20191;-65
2023/01/04 02:23:32;;;;;;;60.67;35.30;;;;;;;4.93;93.42;100398.22;5053799;28;20232;-65
2023/01/04 02:26:46;;;;;;;63.73;35.20;;;;;;;4.93;93.17;100395.59;5052538;28;20203;-66
2023/01/04 02:30:05;;;;;;;64.77;36.63;;;;;;;4.92;93.25;100391.31;5034785;28;20254;-66
2023/01/04 02:32:47;;;;;;;64.53;36.33;;;;;;;4.76;92.32;100403.34;5053232;28;20254;-66
2023/01/04 02:35:21;;;;;;;67.53;36.33;;;;;;;4.70;92.85;100391.56;5053727;28;20184;-66
2023/01/04 02:37:56;;;;;;;62.60;35.07;;;;;;;4.68;93.50;100392.66;5038290;28;20204;-66
2023/01/04 02:40:31;;;;;;;59.07;35.40;;;;;;;4.62;94.18;100396.66;5033903;28;20192;-66
2023/01/04 02:45:54;;;;;;;70.97;36.57;;;;;;;4.70;93.72;100393.38;5041020;28;20593;-66
2023/01/04 02:51:21;;;;;;;63.07;35.37;;;;;;;4.77;94.58;100395.31;5033241;28;20376;-67
2023/01/04 02:53:47;;;;;;;71.67;35.77;;;;;;;4.85;94.39;100402.50;5033539;28;20190;-67
2023/01/04 02:56:34;;;;;;;59.33;34.50;;;;;;;4.87;94.67;100403.22;5047316;28;20200;-67
2023/01/04 02:59:14;;;;;;;59.33;33.67;;;;;;;4.88;94.13;100397.81;5053559;28;20581;-67
2023/01/04 03:07:39;;;;;;;56.57;30.20;;;;;;;4.97;93.46;100410.16;5032933;28;20188;-67
2023/01/04 03:10:10;;;;;;;52.30;30.57;;;;;;;5.05;94.43;100410.28;5033337;28;20243;-67
2023/01/04 03:12:43;;;;;;;50.47;28.43;;;;;;;5.11;94.21;100420.25;5050209;28;20189;-67
2023/01/04 03:15:16;;;;;;;47.73;29.53;;;;;;;5.15;94.35;100420.81;5047185;28;20194;-67
2023/01/04 03:17:48;;;;;;;49.77;29.63;;;;;;;5.15;92.96;100426.91;5035093;28;20250;-67
2023/01/04 03:20:19;;;;;;;49.77;29.07;;;;;;;5.18;92.76;100424.00;5053103;28;20193;-67
2023/01/04 03:36:57;;;;;;;53.33;28.70;;;;;;;5.22;92.49;100428.03;5051307;28;20195;-67
2023/01/04 03:50:53;;;;;;;58.07;29.57;;;;;;;5.10;91.52;100442.28;5032812;28;20184;-66
2023/01/04 03:53:21;;;;;;;51.53;28.73;;;;;;;5.11;91.63;100443.94;5043960;28;20231;-65
2023/01/04 03:55:49;;;;;;;50.10;28.77;;;;;;;5.07;92.78;100447.00;5051002;28;20668;-65
2023/01/04 03:58:18;;;;;;;48.17;28.83;;;;;;;5.11;92.89;100430.78;5051140;28;20219;-66
2023/01/04 04:00:46;;;;;;;47.93;29.53;;;;;;;5.18;92.57;100434.53;5052941;28;20196;-65
2023/01/04 04:03:13;;;;;;;51.47;29.50;;;;;;;5.22;92.55;100438.56;5041541;28;20665;-66
2023/01/04 04:08:28;;;;;;;63.80;36.03;;;;;;;5.22;92.91;100428.03;5032092;28;20181;-65
2023/01/04 04:11:28;;;;;;;52.97;30.50;;;;;;;5.27;92.81;100440.78;5032158;28;20189;-65
2023/01/04 04:13:44;;;;;;;49.00;30.53;;;;;;;5.33;92.70;100441.06;5045587;28;20246;-66
2023/01/04 04:16:11;;;;;;;55.27;33.73;;;;;;;5.30;92.49;100443.97;5046553;28;20197;-66
2023/01/04 04:18:38;;;;;;;47.87;30.40;;;;;;;5.32;92.71;100444.63;5032165;28;20255;-66
2023/01/04 04:21:05;;;;;;;53.63;31.10;;;;;;;5.32;92.08;100444.63;5032292;28;20608;-66
2023/01/04 04:23:33;;;;;;;53.83;30.60;;;;;;;5.30;91.57;100438.69;5031558;28;20244;-66
2023/01/04 04:26:00;;;;;;;53.10;28.47;;;;;;;5.38;91.42;100438.81;5031989;28;20217;-66
2023/01/04 04:28:26;;;;;;;51.10;31.10;;;;;;;5.34;90.43;100442.72;5031852;28;20197;-66
2023/01/04 04:30:53;;;;;;;47.07;28.70;;;;;;;5.26;90.94;100450.47;5046484;28;20246;-66
2023/01/04 04:33:20;;;;;;;46.07;28.70;;;;;;;5.23;90.07;100456.00;5040986;28;20247;-67
2023/01/04 04:35:50;;;;;;;44.43;28.13;;;;;;;5.22;90.30;100454.34;5032408;28;20193;-66
2023/01/04 04:38:17;;;;;;;58.07;29.73;;;;;;;5.22;90.39;100459.63;5031851;28;20197;-65
2023/01/04 04:43:29;;;;;;;46.73;29.37;;;;;;;5.15;90.57;100468.22;5042258;28;20226;-66
2023/01/04 04:45:56;;;;;;;46.87;28.53;;;;;;;5.14;90.45;100466.53;5051741;28;20220;-66
2023/01/04 04:48:22;;;;;;;46.40;28.13;;;;;;;5.16;90.96;100456.72;5051362;28;20192;-65
2023/01/04 04:50:49;;;;;;;51.50;28.73;;;;;;;5.09;90.07;100464.34;5048754;28;20197;-67
2023/01/04 04:53:16;;;;;;;42.67;27.97;;;;;;;5.07;90.38;100465.44;5036720;28;20192;-68
2023/01/04 04:55:43;;;;;;;51.63;28.70;;;;;;;5.07;90.61;100468.09;5051369;28;20200;-67
2023/01/04 04:58:11;;;;;;;48.63;28.77;;;;;;;4.92;90.60;100451.00;5048072;28;20200;-66
2023/01/04 05:00:40;;;;;;;54.37;31.73;;;;;;;4.88;89.52;100476.78;5051038;28;20193;-68
2023/01/04 05:03:07;;;;;;;48.53;30.10;;;;;;;4.73;90.11;100477.28;5031162;28;20247;-68
2023/01/04 05:05:33;;;;;;;51.13;31.57;;;;;;;4.63;90.85;100490.44;5031791;28;20221;-66
2023/01/04 05:08:00;;;;;;;55.30;31.40;;;;;;;4.46;92.55;100480.53;5032123;28;20232;-69
2023/01/04 05:10:27;;;;;;;56.93;30.23;;;;;;;4.37;92.37;100489.22;5046614;28;20188;-68
2023/01/04 05:12:59;;;;;;;65.23;30.90;;;;;;;4.36;92.18;100490.19;5054977;28;20201;-69
2023/01/04 05:15:27;;;;;;;64.50;32.97;;;;;;;4.37;92.85;100491.03;5055390;28;20558;-67
2023/01/04 05:17:54;;;;;;;63.00;31.57;;;;;;;4.30;91.81;100495.97;5054819;28;20192;-67
2023/01/04 05:20:21;;;;;;;57.33;31.13;;;;;;;4.30;92.33;100498.59;5044192;28;20672;-68
2023/01/04 05:22:47;;;;;;;65.60;32.63;;;;;;;4.25;92.74;100508.69;5035964;28;20822;-67
2023/01/04 05:25:14;;;;;;;74.90;32.37;;;;;;;4.26;92.98;100507.75;5042537;28;20242;-68
2023/01/04 05:27:41;;;;;;;69.17;30.83;;;;;;;4.29;93.04;100514.53;5055291;28;20258;-66
2023/01/04 05:32:57;;;;;;;60.27;30.37;;;;;;;4.36;92.59;100521.75;5046415;28;20195;-67
2023/01/04 05:35:24;;;;;;;56.43;29.90;;;;;;;4.37;92.07;100523.41;5053731;28;20204;-66
2023/01/04 05:37:51;;;;;;;56.23;30.40;;;;;;;4.21;92.28;100517.78;5055515;28;20192;-67
2023/01/04 05:40:18;;;;;;;55.93;31.33;;;;;;;4.20;92.65;100518.78;5054653;28;20194;-68
2023/01/04 05:42:45;;;;;;;56.10;32.47;;;;;;;4.23;92.95;100522.94;5044884;28;20196;-67
2023/01/04 05:45:11;;;;;;;56.00;31.43;;;;;;;4.21;93.07;100527.50;5058053;28;20626;-67
2023/01/04 05:47:38;;;;;;;67.73;33.23;;;;;;;4.04;93.29;100531.53;5054136;28;20250;-67
2023/01/04 05:50:08;;;;;;;69.37;35.67;;;;;;;4.00;93.24;100527.50;5054167;28;20497;-68
2023/01/04 05:52:35;;;;;;;70.30;33.93;;;;;;;3.93;92.61;100528.16;5052595;28;20196;-67
2023/01/04 05:55:02;;;;;;;72.70;34.30;;;;;;;3.87;92.74;100524.25;5049355;28;20451;-67
2023/01/04 05:57:29;;;;;;;58.47;34.27;;;;;;;3.92;93.27;100521.25;5053950;28;20500;-66
2023/01/04 05:59:56;;;;;;;61.10;36.30;;;;;;;3.92;92.97;100524.69;5053320;28;20660;-68
2023/01/04 06:02:24;;;;;;;77.13;40.90;;;;;;;3.85;92.02;100536.66;5053959;28;20484;-69
2023/01/04 06:04:51;;;;;;;76.77;41.10;;;;;;;3.81;92.54;100540.53;5053988;28;20192;-69
2023/01/04 06:07:19;;;;;;;84.57;42.63;;;;;;;3.71;92.82;100542.25;5053378;28;20466;-69
2023/01/04 06:09:46;;;;;;;127.40;52.97;;;;;;;3.72;93.40;100543.91;5052940;28;20250;-68
2023/01/04 06:12:13;;;;;;;91.67;41.63;;;;;;;3.71;92.54;100544.88;5053046;28;20877;-68
2023/01/04 06:14:41;;;;;;;75.70;36.27;;;;;;;3.77;93.03;100544.38;5053547;28;20255;-68
2023/01/04 06:17:08;;;;;;;66.97;35.60;;;;;;;3.85;92.99;100543.72;5053452;28;20258;-68
2023/01/04 06:19:35;;;;;;;67.37;35.47;;;;;;;3.90;91.60;100550.28;5051877;28;20443;-68
2023/01/04 06:22:01;;;;;;;71.63;37.40;;;;;;;3.94;90.99;100546.44;5053824;28;20220;-66
2023/01/04 06:24:30;;;;;;;76.20;42.57;;;;;;;3.97;91.63;100546.16;5053924;28;20189;-68
2023/01/04 06:26:56;;;;;;;87.93;43.87;;;;;;;4.00;90.42;100561.69;5053393;28;20220;-70
2023/01/04 06:29:23;;;;;;;72.73;42.90;;;;;;;3.97;91.04;100559.28;5042399;28;20192;-70
2023/01/04 06:31:50;;;;;;;77.80;41.93;;;;;;;3.93;92.04;100557.88;5044625;28;20869;-69
2023/01/04 06:34:16;;;;;;;87.97;46.77;;;;;;;4.10;93.02;100567.84;5053599;28;20258;-70
2023/01/04 06:36:43;;;;;;;92.60;45.80;;;;;;;4.27;92.13;100569.88;5053251;28;20668;-68
2023/01/04 06:39:10;;;;;;;86.13;45.70;;;;;;;4.43;91.87;100575.50;5052401;28;20664;-67
2023/01/04 06:41:38;;;;;;;79.47;42.97;;;;;;;4.52;91.15;100579.97;5053371;28;20188;-67
2023/01/04 06:44:05;;;;;;;72.67;39.00;;;;;;;4.72;91.06;100580.88;5053677;28;20193;-66
2023/01/04 06:46:32;;;;;;;64.97;40.50;;;;;;;4.91;90.30;100579.16;5050567;28;20774;-69
2023/01/04 06:48:59;;;;;;;60.90;32.07;;;;;;;5.05;89.29;100586.69;5052189;28;20262;-68
2023/01/04 06:51:25;;;;;;;46.50;30.20;;;;;;;5.23;88.89;100582.44;5049462;28;20189;-71
2023/01/04 06:53:52;;;;;;;48.37;29.00;;;;;;;5.50;86.94;100594.97;5052848;28;20613;-68
2023/01/04 06:56:19;;;;;;;60.03;38.10;;;;;;;5.42;85.02;100600.91;5049259;28;20205;-66
2023/01/04 06:58:47;;;;;;;71.40;40.57;;;;;;;5.35;85.69;100597.16;5051113;28;20197;-69
2023/01/04 07:01:14;;;;;;;66.33;36.80;;;;;;;5.46;86.24;100602.31;5040952;28;20266;-69
2023/01/04 07:03:40;;;;;;;51.03;30.40;;;;;;;6.25;93.00;100589.84;5050578;28;20200;-67
2023/01/04 07:06:09;;;;;;;45.43;27.53;;;;;;;6.85;89.85;100592.00;5051121;28;20656;-67
2023/01/04 07:08:36;;;;;;;43.83;25.73;;;;;;;7.07;81.19;100603.00;5048834;28;20741;-70
2023/01/04 07:11:03;;;;;;;44.47;28.17;;;;;;;7.32;82.09;100604.16;5048890;28;20193;-72
2023/01/04 07:13:30;;;;;;;60.37;30.90;;;;;;;7.62;78.02;100598.50;5044464;28;20200;-74
2023/01/04 07:15:58;;;;;;;63.53;29.33;;;;;;;7.78;79.31;100588.94;5047914;28;20202;-69
2023/01/04 07:18:25;;;;;;;56.73;28.87;;;;;;;8.01;76.55;100599.88;5049313;28;20196;-70
2023/01/04 07:20:52;;;;;;;54.77;28.77;;;;;;;8.16;74.53;100609.75;5051300;28;20660;-73
2023/01/04 07:23:18;;;;;;;51.37;30.10;;;;;;;8.20;74.71;100611.13;5051533;28;20290;-72
2023/01/04 07:25:45;;;;;;;59.33;32.00;;;;;;;8.42;74.99;100609.81;5052114;28;20197;-69
2023/01/04 07:29:13;;;;;;;60.03;34.30;;;;;;;8.66;74.87;100610.00;5051357;28;20250;-70
2023/01/04 07:31:04;;;;;;;59.13;31.90;;;;;;;8.87;72.96;100615.72;5044127;28;20220;-70
2023/01/04 07:33:31;;;;;;;48.33;29.70;;;;;;;9.02;72.70;100614.13;5052479;28;20223;-69
2023/01/04 07:36:02;;;;;;;39.50;26.23;;;;;;;9.22;72.57;100618.19;5050756;28;20204;-70
2023/01/04 07:38:29;;;;;;;82.93;37.87;;;;;;;9.40;71.29;100625.06;5037619;28;20207;-72
2023/01/04 07:40:55;;;;;;;96.73;45.37;;;;;;;9.65;71.43;100625.97;5051993;28;20197;-68
2023/01/04 07:43:22;;;;;;;62.90;33.83;;;;;;;9.92;70.26;100633.63;5051867;28;20250;-67
2023/01/04 07:45:49;;;;;;;53.30;30.00;;;;;;;10.15;70.30;100632.88;5051842;28;20201;-67
2023/01/04 07:48:17;;;;;;;60.10;31.07;;;;;;;10.40;69.69;100628.38;5051141;28;20270;-69
2023/01/04 07:50:44;;;;;;;53.80;28.27;;;;;;;10.66;69.29;100637.81;5052218;28;20257;-68
2023/01/04 07:53:11;;;;;;;85.73;26.67;;;;;;;10.96;69.24;100626.44;5051748;28;20726;-68
2023/01/04 07:55:38;;;;;;;50.03;28.30;;;;;;;11.18;69.41;100627.53;5038227;28;20277;-67
2023/01/04 07:58:05;;;;;;;25.00;17.37;;;;;;;11.70;84.68;100586.06;5044072;28;20200;-66
2023/01/04 08:00:31;;;;;;;41.17;26.17;;;;;;;12.91;90.65;100593.78;5052004;28;20194;-68
2023/01/04 08:02:58;;;;;;;70.67;30.60;;;;;;;13.91;73.27;100618.66;5051570;28;20270;-70
2023/01/04 08:05:26;;;;;;;40.50;24.53;;;;;;;14.79;68.54;100635.91;5050466;28;20617;-67
2023/01/04 08:07:53;;;;;;;47.20;25.00;;;;;;;14.95;59.09;100626.75;5051699;28;20282;-67
2023/01/04 08:10:19;;;;;;;57.37;30.80;;;;;;;14.75;57.35;100629.28;5051944;28;20193;-68
2023/01/04 08:12:46;;;;;;;60.63;29.47;;;;;;;14.43;58.00;100631.72;5051592;28;20661;-67
2023/01/04 08:15:14;;;;;;;56.67;30.17;;;;;;;14.49;58.86;100636.28;5047358;28;20241;-67
2023/01/04 08:17:40;;;;;;;47.23;27.40;;;;;;;14.41;57.64;100621.22;5040018;28;20208;-68
2023/01/04 08:20:08;;;;;;;55.30;26.43;;;;;;;14.57;58.57;100628.94;5034286;28;20248;-71
2023/01/04 08:22:36;;;;;;;56.47;26.50;;;;;;;14.66;58.67;100630.47;5065239;28;20273;-67
2023/01/04 08:25:04;;;;;;;55.77;28.20;;;;;;;14.72;57.87;100635.03;5065283;28;20196;-65
2023/01/04 08:27:31;;;;;;;33.47;24.57;;;;;;;14.72;59.01;100628.84;5041709;28;20220;-67
2023/01/04 08:29:58;;;;;;;46.87;24.60;;;;;;;14.52;58.98;100634.06;5045968;28;20624;-67
2023/01/04 08:32:25;;;;;;;58.37;25.60;;;;;;;14.33;59.61;100632.03;5043970;28;20193;-69
2023/01/04 08:34:53;;;;;;;43.33;25.80;;;;;;;14.41;60.54;100626.56;5031980;28;20194;-69
2023/01/04 08:37:19;;;;;;;72.73;26.40;;;;;;;14.64;59.55;100613.78;5042913;28;20200;-70
2023/01/04 08:39:48;;;;;;;36.70;24.77;;;;;;;14.98;58.84;100627.19;5048006;28;20657;-72
2023/01/04 08:42:14;;;;;;;40.80;22.63;;;;;;;15.15;58.61;100622.34;5048689;28;20228;-67
2023/01/04 08:44:41;;;;;;;40.53;23.70;;;;;;;15.37;57.93;100614.06;5053034;28;20196;-68
2023/01/04 08:47:08;;;;;;;38.33;23.30;;;;;;;15.47;58.20;100617.16;5052952;28;20711;-69
2023/01/04 08:49:35;;;;;;;49.50;23.70;;;;;;;15.59;57.04;100610.22;5053091;28;20286;-68
2023/01/04 08:52:01;;;;;;;49.23;23.83;;;;;;;15.70;57.50;100615.00;5053101;28;20691;-67
2023/01/04 08:54:28;;;;;;;42.33;23.33;;;;;;;15.84;57.61;100613.16;5053737;28;20254;-69
2023/01/04 08:56:57;;;;;;;33.27;21.07;;;;;;;15.97;57.11;100610.53;5052044;28;20266;-70
2023/01/04 08:59:24;;;;;;;42.07;22.93;;;;;;;16.14;57.33;100608.28;5053129;28;20192;-67
2023/01/04 09:01:51;;;;;;;47.67;22.47;;;;;;;16.34;56.93;100604.59;5053292;28;20216;-67
2023/01/04 09:04:17;;;;;;;34.23;20.87;;;;;;;16.50;56.45;100598.00;5053598;28;20246;-69
2023/01/04 09:06:44;;;;;;;34.70;22.30;;;;;;;16.68;56.28;100592.81;5053773;28;20250;-68
2023/01/04 09:09:11;;;;;;;30.50;20.50;;;;;;;16.77;55.38;100591.56;5052488;28;20203;-68
2023/01/04 09:11:38;;;;;;;43.20;25.63;;;;;;;16.75;55.21;100590.97;5053797;28;20209;-68
2023/01/04 09:14:09;;;;;;;185.97;39.27;;;;;;;16.57;56.24;100582.75;5053297;28;20278;-70
2023/01/04 09:16:37;;;;;;;35.87;23.77;;;;;;;16.45;57.48;100582.53;5053348;28;20219;-66
2023/01/04 09:19:04;;;;;;;28.63;19.80;;;;;;;16.26;58.06;100575.28;5052783;28;20275;-66
2023/01/04 09:21:30;;;;;;;117.93;22.27;;;;;;;16.33;58.51;100572.59;5051772;28;20262;-67
2023/01/04 09:23:57;;;;;;;27.07;17.33;;;;;;;16.41;57.98;100573.25;5054313;28;20233;-66
2023/01/04 09:26:24;;;;;;;29.73;17.47;;;;;;;16.34;58.49;100566.22;5053749;28;20374;-67
2023/01/04 09:28:53;;;;;;;31.57;15.90;;;;;;;16.48;58.25;100563.34;5054923;28;20201;-67
2023/01/04 09:31:23;;;;;;;21.50;14.77;;;;;;;16.53;58.79;100535.91;5037659;28;20192;-68
2023/01/04 09:33:50;;;;;;;23.07;14.63;;;;;;;16.92;58.33;100554.59;5067347;28;20193;-67
2023/01/04 09:36:18;;;;;;;17.13;13.30;;;;;;;17.05;57.67;100549.16;5055151;28;20195;-65
2023/01/04 09:38:45;;;;;;;20.50;13.27;;;;;;;17.09;58.17;100548.53;5054271;28;20199;-69
2023/01/04 09:41:20;;;;;;;20.60;12.70;;;;;;;17.25;57.69;100544.53;5050501;28;20264;-66
2023/01/04 09:43:49;;;;;;;34.07;11.70;;;;;;;17.32;56.65;100539.97;5057217;28;20177;-68
2023/01/04 09:46:24;;;;;;;12.60;9.43;;;;;;;17.03;57.07;100543.19;5050357;28;20197;-67
2023/01/04 09:48:56;;;;;;;17.70;10.73;;;;;;;16.54;58.49;100543.72;5055269;28;20570;-66
2023/01/04 09:51:28;;;;;;;19.60;12.33;;;;;;;16.44;59.07;100535.28;5055132;28;20223;-67
2023/01/04 09:54:01;;;;;;;25.33;13.63;;;;;;;16.34;59.73;100531.34;5056254;28;20624;-68
2023/01/04 09:56:31;;;;;;;23.70;12.40;;;;;;;16.42;59.58;100525.81;5049278;28;20236;-68
2023/01/04 09:59:01;;;;;;;16.53;11.87;;;;;;;16.20;60.20;100519.00;5044574;28;20258;-67
2023/01/04 10:01:39;;;;;;;20.63;11.90;;;;;;;16.04;61.33;100516.72;5049941;28;20203;-69
2023/01/04 10:04:15;;;;;;;12.43;11.17;;;;;;;16.18;60.80;100508.47;5049273;28;20565;-69
2023/01/04 10:06:42;;;;;;;15.97;11.87;;;;;;;16.20;60.51;100510.94;5040858;28;20189;-69
2023/01/04 10:09:13;;;;;;;20.57;10.80;;;;;;;16.16;60.65;100507.03;5031772;28;20189;-68
2023/01/04 10:11:53;;;;;;;11.37;10.33;;;;;;;15.91;61.86;100498.78;5036328;28;20714;-67
2023/01/04 10:14:36;;;;;;;16.10;11.13;;;;;;;16.01;61.31;100501.88;5045185;28;20193;-71
2023/01/04 10:17:15;;;;;;;11.70;10.37;;;;;;;16.12;61.29;100500.44;5048224;28;20232;-71
2023/01/04 10:20:03;;;;;;;24.10;12.17;;;;;;;16.38;61.17;100497.72;5051483;28;20193;-70
2023/01/04 10:22:44;;;;;;;27.47;12.17;;;;;;;16.32;60.57;100503.91;5051030;28;20240;-72
2023/01/04 10:25:24;;;;;;;22.33;11.07;;;;;;;16.37;61.28;100496.06;5050764;28;20192;-72
2023/01/04 10:28:06;;;;;;;19.67;11.50;;;;;;;16.61;60.38;100498.13;5052385;28;20216;-67
2023/01/04 10:30:40;;;;;;;17.17;11.07;;;;;;;16.76;58.90;100496.00;5051704;28;20201;-69
2023/01/04 10:33:12;;;;;;;22.43;11.13;;;;;;;16.42;59.83;100473.00;5051266;28;20212;-69
2023/01/04 10:35:42;;;;;;;11.83;10.03;;;;;;;16.74;59.34;100492.72;5051455;28;20262;-66
2023/01/04 10:38:16;;;;;;;12.27;10.33;;;;;;;16.69;59.55;100492.50;5051419;28;20216;-69
2023/01/04 10:40:46;;;;;;;11.30;10.07;;;;;;;16.43;60.13;100489.91;5050525;28;20278;-69
2023/01/04 10:43:21;;;;;;;15.90;10.53;;;;;;;16.41;59.81;100465.16;5049852;28;20234;-71
2023/01/04 10:45:54;;;;;;;12.10;10.37;;;;;;;16.65;59.43;100480.56;5051912;28;20200;-67
2023/01/04 10:48:32;;;;;;;16.57;10.10;;;;;;;16.67;59.15;100473.13;5052136;28;20217;-70
2023/01/04 10:51:01;;;;;;;12.97;10.67;;;;;;;16.45;59.85;100461.03;5051636;28;20203;-68
2023/01/04 10:53:33;;;;;;;12.63;9.97;;;;;;;16.78;58.61;100477.84;5050355;28;20655;-68
2023/01/04 10:56:04;;;;;;;12.37;9.80;;;;;;;16.48;59.06;100468.63;5051940;28;20193;-67
2023/01/04 10:58:37;;;;;;;15.00;10.27;;;;;;;16.53;59.20;100468.84;5051026;28;20239;-66
2023/01/04 11:01:08;;;;;;;12.60;10.77;;;;;;;16.60;59.13;100464.25;5050704;28;20192;-68
2023/01/04 11:03:42;;;;;;;16.87;10.67;;;;;;;16.64;58.83;100455.59;5047897;28;20193;-67
2023/01/04 11:06:14;;;;;;;21.53;11.53;;;;;;;16.76;58.78;100463.81;5049908;28;20197;-69
2023/01/04 11:08:48;;;;;;;14.93;10.63;;;;;;;16.95;57.41;100468.28;5051241;28;20258;-68
2023/01/04 11:11:20;;;;;;;10.60;9.30;;;;;;;16.78;57.53;100470.59;5047177;28;20202;-70
2023/01/04 11:13:48;;;;;;;11.87;9.50;;;;;;;16.84;57.73;100466.25;5048495;28;20668;-69
2023/01/04 11:16:15;;;;;;;15.50;9.93;;;;;;;16.84;57.97;100460.88;5049218;28;20196;-67
2023/01/04 11:18:45;;;;;;;10.20;9.13;;;;;;;16.70;57.72;100464.66;5048234;28;20251;-69
2023/01/04 11:21:16;;;;;;;15.23;10.07;;;;;;;16.55;58.00;100453.34;5050098;28;20247;-66
2023/01/04 11:23:43;;;;;;;12.63;9.80;;;;;;;16.50;58.35;100456.66;5049849;28;20228;-68
2023/01/04 11:26:15;;;;;;;9.80;8.83;;;;;;;16.58;58.24;100460.97;5049132;28;20583;-71
2023/01/04 11:28:49;;;;;;;23.17;11.37;;;;;;;16.67;66.62;100454.34;5049865;28;20212;-72
2023/01/04 11:31:24;;;;;;;14.50;11.40;;;;;;;16.89;57.82;100469.94;5051549;28;20627;-69
2023/01/04 11:33:55;;;;;;;14.00;10.63;;;;;;;17.02;57.01;100461.03;5044297;28;20195;-73
2023/01/04 11:36:34;;;;;;;12.13;9.40;;;;;;;17.00;57.10;100463.09;5034725;28;20623;-72
2023/01/04 11:39:01;;;;;;;11.07;9.63;;;;;;;17.16;56.45;100462.59;5046423;28;20238;-69
2023/01/04 11:41:28;;;;;;;9.53;8.63;;;;;;;17.14;55.68;100467.34;5051979;28;20243;-71
2023/01/04 11:44:00;;;;;;;9.83;8.93;;;;;;;17.21;55.49;100468.13;5048806;28;20557;-71
2023/01/04 11:46:27;;;;;;;9.57;8.57;;;;;;;17.20;55.37;100467.34;5051906;28;20292;-72
2023/01/04 11:48:56;;;;;;;10.30;9.40;;;;;;;17.31;54.88;100463.13;5051820;28;20265;-73
2023/01/04 11:51:39;;;;;;;11.40;8.40;;;;;;;17.13;55.21;100465.69;5051832;28;20199;-73
2023/01/04 11:54:18;;;;;;;10.50;8.77;;;;;;;17.09;55.25;100464.47;5044452;28;20189;-70
2023/01/04 11:57:00;;;;;;;9.90;8.90;;;;;;;16.88;56.50;100460.25;5046612;28;20216;-70
2023/01/04 11:59:27;;;;;;;15.23;9.30;;;;;;;17.08;56.42;100462.84;5042235;28;20322;-71
2023/01/04 12:02:19;;;;;;;9.67;8.83;;;;;;;17.10;55.62;100461.59;5039329;28;20194;-71
2023/01/04 12:04:48;;;;;;;10.00;9.00;;;;;;;17.19;55.50;100456.81;5038879;28;20191;-67
2023/01/04 12:07:30;;;;;;;9.20;8.30;;;;;;;17.24;55.85;100459.66;5041312;28;20202;-66
2023/01/04 12:09:58;;;;;;;10.53;8.90;;;;;;;17.20;56.36;100461.97;5039846;28;20195;-67
2023/01/04 12:12:29;;;;;;;15.87;9.80;;;;;;;17.24;56.12;100459.66;5039635;28;20189;-69